Venice, FL

7:10 PM EST on November 22, 2014 (GMT -0500)
South Venice | Change Station
CLOSE
Current Station
Personal Weather Station
Location: Venice, FL
Elevation: 26 ft
Nearby Weather Stations

Elev 26 ft 27.05 °N, 82.41 °W | Updated 1 minute ago

Overcast
Overcast
74.1 °F
Feels Like 76 °F
N
1.7
Wind Variable Wind from NNE

Today
High -- | Low -- °F
--% Chance of Precip.
Yesterday
High -- | Low -- °F
Precip. -- in
6:54 AM 5:36 PM
New Moon, 0% visible
Pressure 30.07 in
Visibility 10.0 miles
Clouds Scattered Clouds 3400 ft
Overcast 7500 ft
Heat Index 76 °F
Dew Point 64 °F
Humidity 70%
Rainfall 0.00 in
Snow Depth Not available.
UV 0 out of 12
Pollen 4.50 out of 12
Air Quality Not available.
Flu Activity Not available.
METAR KVNC 222355Z AUTO 10013KT 10SM SCT034 OVC075 24/19 A3007 RMK AO2 TSNO

More Conditions Fewer Conditions

Pressure 30.07 in
Visibility 10.0 miles
Clouds Scattered Clouds 3400 ft
Overcast 7500 ft
Heat Index 76 °F
Dew Point 64 °F
Humidity 70%
Rainfall 0.00 in
Snow Depth Not available.
UV 0 out of 12
Pollen 4.50 out of 12
Air Quality Not available.
Flu Activity Not available.
METAR KVNC 222355Z AUTO 10013KT 10SM SCT034 OVC075 24/19 A3007 RMK AO2 TSNO

More Conditions Fewer Conditions

10-Day Weather Forecast

Almanac

Astronomy

Nov. 22, 2014 Rise Set
Actual Time
Civil Twilight
Nautical Twilight
Astronomical Twilight
Moon
Length of Visible Light
Length of Day
Tomorrow will be .
, % of the Moon is Illuminated

Today's Extremes

State Highs State Lows

Community

WunderPhotos

Upload Photos

1,772,931 photos uploaded!

WunderBlogs® & News

Nearby

Air Quality

  Air Quality AQ Index Pollutant
Not available.

Snow Depth

Station Depth Elevation

Earthquake Activity

City Distance Mag. Time & Date
Minimum magnitude displayed is 2.5.

Coastal Water Temperatures

Place Temperature

Nearby Weather Stations